Strona główna
METAR-TAF:

METAR-TAF

Lotnisko :

Port lotniczy Surabaja-Juanda

Gerbangkertosusila, Indonezja

Szerokość geograficzna: 07-22-47S, Długość geograficzna: 112-47-13E, wysokość: 3 m

METAR: brakujący

czas: 06:59 (23:59 UTC)

Prognoza

Raport powstał 59 minut temu, godzina 23:00 UTC
Prognoza ważna od 05 godzina 00 UTC do 06 godzina 00 UTC
Wiatr 5 kt od zachód
Rozproszone chmury na wysokości 2000 ft
zmętnienie
Stopniowe zmiany
od 05 godzina 01 UTC do 05 godzina 03 UTC
Wiatr 10 kt od wschodnio-północny wschód
Widzialność: 9000 m
Prawdopodobieństwo 40% :
Przejściowo
od 05 godzina 10 UTC do 05 godzina 14 UTC
Widzialność: 4000 m
Rozproszone chmury na wysokości 1800 ft, Cumulonimbus.
burza, deszcz
Stopniowe zmiany
od 05 godzina 14 UTC do 05 godzina 16 UTC
Wiatr 5 kt od zachód
Widzialność: 4000 m
Mało chmury na wysokości 2000 ft
zmętnienie

TAF: WARR 042300Z 0500/0600 26005KT HZ SCT020 BECMG 0501/0503 07010KT 9000 NSW PROB40 TEMPO 0510/0514 4000 TSRA SCT018CB BECMG 0514/0516 26005KT 4000 HZ FEW020

Obserwacja i prognoza pogody dla ponad 4000 lotnisk (raport METAR i TAF).

Dostępne stacje oznaczono żółtymi i czerwonymi punktami na mapie.

Najedź kursorem aby zobaczyć nazwę stacji.

Kliknij aby zobaczyć obserwacje i prognozy pogody.

Aby zmienić mapę: kliknij na zielony przycisk z czarnym krzyżykiem, aby powiększyć; na zielony przycisk z myślnikiem, aby pomniejszyć; na zielone strzałki, aby przejść do map sąsiednich.


METAR-TAF: